createdAt,value
2022-12-24T00:02:54.284Z,10.62
2022-12-24T00:06:09.195Z,10.63
2022-12-24T00:09:17.600Z,10.49
2022-12-24T00:12:27.095Z,10.54
2022-12-24T00:15:36.573Z,10.67
2022-12-24T00:18:47.396Z,10.71
2022-12-24T00:21:55.608Z,10.66
2022-12-24T00:25:03.786Z,10.73
2022-12-24T00:28:13.089Z,10.61
2022-12-24T00:31:23.032Z,10.62
2022-12-24T00:34:31.505Z,10.46
2022-12-24T00:37:39.610Z,10.54
2022-12-24T00:40:48.024Z,10.63
2022-12-24T00:43:58.686Z,10.64
2022-12-24T00:47:12.150Z,10.57
2022-12-24T00:50:20.669Z,10.53
2022-12-24T00:53:28.824Z,10.63
2022-12-24T00:56:37.395Z,10.59
2022-12-24T00:59:45.603Z,10.56
2022-12-24T01:02:55.448Z,10.55
2022-12-24T01:06:05.419Z,10.66
2022-12-24T01:09:13.818Z,10.50
2022-12-24T01:12:22.015Z,10.46
2022-12-24T01:15:30.727Z,10.58
2022-12-24T01:18:40.535Z,10.49
2022-12-24T01:21:48.701Z,10.46
2022-12-24T01:24:56.896Z,10.40
2022-12-24T01:28:05.312Z,10.32
2022-12-24T01:31:17.465Z,10.12
2022-12-24T01:34:27.510Z,9.99
2022-12-24T01:37:35.855Z,10.07
2022-12-24T01:41:02.369Z,10.06
2022-12-24T01:44:33.463Z,10.12
2022-12-24T01:47:44.230Z,10.06
2022-12-24T01:51:03.977Z,10.17
2022-12-24T01:54:17.436Z,10.13
2022-12-24T01:57:31.852Z,10.10
2022-12-24T02:00:40.267Z,10.20
2022-12-24T02:03:48.900Z,10.13
2022-12-24T02:06:58.928Z,10.16
2022-12-24T02:10:11.499Z,10.11
2022-12-24T02:13:22.805Z,10.12
2022-12-24T02:16:43.170Z,10.12
2022-12-24T02:20:41.069Z,10.01
2022-12-24T02:24:23.435Z,10.11
2022-12-24T02:27:53.789Z,10.00
2022-12-24T02:31:10.685Z,9.93
2022-12-24T02:34:30.740Z,10.04
2022-12-24T02:37:44.902Z,9.99
2022-12-24T02:40:59.780Z,9.91
2022-12-24T02:44:08.520Z,9.98
2022-12-24T02:47:20.688Z,10.03
2022-12-24T02:50:30.110Z,10.08
2022-12-24T02:53:40.132Z,9.98
2022-12-24T02:57:09.832Z,9.93
2022-12-24T03:00:22.161Z,9.87
2022-12-24T03:03:47.620Z,10.04
2022-12-24T03:07:10.515Z,9.85
2022-12-24T03:10:32.158Z,9.86
2022-12-24T03:13:41.478Z,9.92
2022-12-24T03:16:51.026Z,9.78
2022-12-24T03:20:00.726Z,9.71
2022-12-24T03:23:09.905Z,9.80
2022-12-24T03:26:20.372Z,9.84
2022-12-24T03:29:28.583Z,9.88
2022-12-24T03:32:36.978Z,9.96
2022-12-24T03:35:46.636Z,9.88
2022-12-24T03:38:54.763Z,9.96
2022-12-24T03:42:02.876Z,10.12
2022-12-24T03:45:12.252Z,9.92
2022-12-24T03:48:20.365Z,9.92
2022-12-24T03:51:30.026Z,9.98
2022-12-24T03:54:38.330Z,9.92
2022-12-24T03:57:46.385Z,9.90
2022-12-24T04:00:54.736Z,9.88
2022-12-24T04:04:03.225Z,9.98
2022-12-24T04:07:12.720Z,9.99
2022-12-24T04:10:20.923Z,9.95
2022-12-24T04:13:29.072Z,9.96
2022-12-24T04:16:37.342Z,9.95
2022-12-24T04:19:45.687Z,9.86
2022-12-24T04:22:55.775Z,9.81
2022-12-24T04:26:06.973Z,9.81
2022-12-24T04:29:15.070Z,9.80
2022-12-24T04:32:23.246Z,9.73
2022-12-24T04:35:31.652Z,9.75
2022-12-24T04:38:41.327Z,9.81
2022-12-24T04:41:49.405Z,9.68
2022-12-24T04:44:57.590Z,9.67
2022-12-24T04:48:06.195Z,9.77
2022-12-24T04:51:15.687Z,9.79
2022-12-24T04:54:25.443Z,9.68
2022-12-24T04:57:35.671Z,9.62
2022-12-24T05:00:43.782Z,9.67
2022-12-24T05:03:53.600Z,9.62
2022-12-24T05:07:01.932Z,9.70
2022-12-24T05:10:12.727Z,9.72
2022-12-24T05:13:21.097Z,9.68
2022-12-24T05:16:29.556Z,9.77
2022-12-24T05:19:38.057Z,9.76
2022-12-24T05:23:03.944Z,9.75
2022-12-24T05:26:24.626Z,9.66
2022-12-24T05:29:32.723Z,9.82
2022-12-24T05:32:41.043Z,9.81
2022-12-24T05:35:49.266Z,9.88
2022-12-24T05:38:58.015Z,9.88
2022-12-24T05:42:07.842Z,9.74
2022-12-24T05:45:16.281Z,9.69
2022-12-24T05:48:24.523Z,9.83
2022-12-24T05:51:32.675Z,9.84
2022-12-24T05:54:40.840Z,9.85
2022-12-24T05:57:50.537Z,9.73
2022-12-24T06:00:59.178Z,9.74
2022-12-24T06:04:07.332Z,9.77
2022-12-24T06:07:15.715Z,9.69
2022-12-24T06:10:23.917Z,9.73
2022-12-24T06:13:34.748Z,9.76
2022-12-24T06:16:43.079Z,9.67
2022-12-24T06:27:23.082Z,9.55
2022-12-24T06:30:32.608Z,9.53
2022-12-24T06:33:41.266Z,9.53
2022-12-24T06:36:49.543Z,9.46
2022-12-24T06:39:57.742Z,9.45
2022-12-24T06:43:05.959Z,9.39
2022-12-24T06:46:16.940Z,9.32
2022-12-24T06:49:25.159Z,9.19
2022-12-24T06:52:33.277Z,9.24
2022-12-24T06:55:41.493Z,9.23
2022-12-24T06:58:50.348Z,9.24
2022-12-24T07:02:00.040Z,9.22
2022-12-24T07:05:10.405Z,9.17
2022-12-24T07:08:18.579Z,9.16
2022-12-24T07:11:27.801Z,9.20
2022-12-24T07:14:36.326Z,9.16
2022-12-24T07:17:46.183Z,9.11
2022-12-24T07:20:54.693Z,9.19
2022-12-24T07:24:03.100Z,9.20
2022-12-24T07:27:11.325Z,9.12
2022-12-24T07:30:20.058Z,9.19
2022-12-24T07:33:30.264Z,9.22
2022-12-24T07:36:38.395Z,9.13
2022-12-24T07:39:47.135Z,9.18
2022-12-24T07:42:55.583Z,9.15
2022-12-24T07:46:04.549Z,9.18
2022-12-24T07:49:14.359Z,9.18
2022-12-24T07:52:23.002Z,9.30
2022-12-24T07:55:31.559Z,9.19
2022-12-24T07:58:39.955Z,9.16
2022-12-24T08:01:48.496Z,9.22
2022-12-24T08:04:59.072Z,9.23
2022-12-24T08:08:07.663Z,9.14
2022-12-24T08:11:16.341Z,9.08
2022-12-24T08:14:25.189Z,9.11
2022-12-24T08:17:33.823Z,9.15
2022-12-24T08:20:43.677Z,9.10
2022-12-24T08:23:52.096Z,9.15
2022-12-24T08:27:00.718Z,9.14
2022-12-24T08:30:14.795Z,9.16
2022-12-24T08:33:26.309Z,9.15
2022-12-24T08:36:36.196Z,9.10
2022-12-24T08:39:44.980Z,9.16
2022-12-24T08:42:53.567Z,9.13
2022-12-24T08:46:05.668Z,9.08
2022-12-24T08:49:14.342Z,9.22
2022-12-24T08:52:24.281Z,9.21
2022-12-24T08:55:35.120Z,9.15
2022-12-24T08:58:43.366Z,9.26
2022-12-24T09:01:51.919Z,9.26
2022-12-24T09:05:00.766Z,9.30
2022-12-24T09:08:10.685Z,9.43
2022-12-24T09:11:20.549Z,9.49
2022-12-24T09:14:28.813Z,9.50
2022-12-24T09:17:40.204Z,9.54
2022-12-24T09:20:52.371Z,9.57
2022-12-24T09:24:06.696Z,9.58
2022-12-24T09:27:14.854Z,9.62
2022-12-24T09:30:23.466Z,9.75
2022-12-24T09:33:38.166Z,9.79
2022-12-24T09:36:46.818Z,9.86
2022-12-24T09:39:56.213Z,9.89
2022-12-24T09:43:15.577Z,9.93
2022-12-24T09:46:31.221Z,9.87
2022-12-24T09:49:46.310Z,9.83
2022-12-24T09:52:56.938Z,9.80
2022-12-24T09:56:14.254Z,9.84
2022-12-24T09:59:26.904Z,9.97
2022-12-24T10:02:35.369Z,9.95
2022-12-24T10:05:53.965Z,10.02
2022-12-24T10:09:15.113Z,10.05
2022-12-24T10:12:37.493Z,9.97
2022-12-24T10:15:58.328Z,9.94
2022-12-24T10:19:18.429Z,10.03
2022-12-24T10:22:37.285Z,10.02
2022-12-24T10:25:53.706Z,9.95
2022-12-24T10:29:13.637Z,9.75
2022-12-24T10:32:26.883Z,9.79
2022-12-24T10:35:44.002Z,9.76
2022-12-24T10:38:52.495Z,9.76
2022-12-24T10:42:03.179Z,9.78
2022-12-24T10:45:19.889Z,9.85
2022-12-24T10:48:37.450Z,9.96
2022-12-24T10:51:54.552Z,9.95
2022-12-24T10:55:12.386Z,9.95
2022-12-24T10:58:21.744Z,9.99
2022-12-24T11:01:48.883Z,9.98
2022-12-24T11:04:59.433Z,10.04
2022-12-24T11:08:20.287Z,10.06
2022-12-24T11:11:44.783Z,10.06
2022-12-24T11:15:03.532Z,9.96
2022-12-24T11:18:17.171Z,9.75
2022-12-24T11:21:29.006Z,9.69
2022-12-24T11:24:43.752Z,9.71
2022-12-24T11:27:55.600Z,9.68
2022-12-24T11:31:08.430Z,9.67
2022-12-24T11:34:29.326Z,9.67
2022-12-24T11:37:37.742Z,9.99
2022-12-24T11:40:49.861Z,10.23
2022-12-24T11:44:06.918Z,10.33
2022-12-24T11:47:15.755Z,10.14
2022-12-24T11:50:31.806Z,9.97
2022-12-24T11:53:50.633Z,9.89
2022-12-24T11:57:03.622Z,9.86
2022-12-24T12:00:13.507Z,9.91
2022-12-24T12:03:38.368Z,9.92
2022-12-24T12:06:51.676Z,9.94
2022-12-24T12:10:07.456Z,9.85
2022-12-24T12:13:20.282Z,9.85
2022-12-24T12:16:59.591Z,9.94
2022-12-24T12:20:20.672Z,9.99
2022-12-24T12:23:36.500Z,9.98
2022-12-24T12:26:47.723Z,10.07
2022-12-24T12:30:01.702Z,10.12
2022-12-24T12:33:24.593Z,10.17
2022-12-24T12:36:40.654Z,10.22
2022-12-24T12:39:50.225Z,10.17
2022-12-24T12:43:14.779Z,10.21
2022-12-24T12:46:35.312Z,10.07
2022-12-24T12:49:58.875Z,10.14
2022-12-24T12:53:33.201Z,10.06
2022-12-24T12:56:49.887Z,10.09
2022-12-24T13:00:05.666Z,10.19
2022-12-24T13:04:06.580Z,10.09
2022-12-24T13:07:53.644Z,10.13
2022-12-24T13:11:31.819Z,10.17
2022-12-24T13:15:26.643Z,10.26
2022-12-24T13:19:00.249Z,10.18
2022-12-24T13:22:18.313Z,10.28
2022-12-24T13:25:35.170Z,10.30
2022-12-24T13:28:44.272Z,10.23
2022-12-24T13:31:54.642Z,10.25
2022-12-24T13:35:26.316Z,10.20
2022-12-24T13:38:48.532Z,10.15
2022-12-24T13:41:56.867Z,9.98
2022-12-24T13:45:48.113Z,9.95
2022-12-24T13:48:56.486Z,9.82
2022-12-24T13:52:24.725Z,9.73
2022-12-24T13:55:36.260Z,9.83
2022-12-24T13:58:49.335Z,9.80
2022-12-24T14:01:58.578Z,9.83
2022-12-24T14:05:21.589Z,9.81
2022-12-24T14:08:37.707Z,9.77
2022-12-24T14:12:46.676Z,9.77
2022-12-24T14:16:05.823Z,9.54
2022-12-24T14:19:17.425Z,9.53
2022-12-24T14:22:32.012Z,9.46
2022-12-24T14:25:44.408Z,9.28
2022-12-24T14:28:59.318Z,9.21
2022-12-24T14:32:16.338Z,9.19
2022-12-24T14:35:30.169Z,8.91
2022-12-24T14:38:42.814Z,8.97
2022-12-24T14:42:09.879Z,8.96
2022-12-24T14:45:34.852Z,8.87
2022-12-24T14:48:53.521Z,8.76
2022-12-24T14:52:37.630Z,8.71
2022-12-24T14:55:47.277Z,8.59
2022-12-24T14:58:55.372Z,8.34
2022-12-24T15:02:40.963Z,8.46
2022-12-24T15:05:55.502Z,8.37
2022-12-24T15:09:04.366Z,8.32
2022-12-24T15:12:14.099Z,8.34
2022-12-24T15:15:23.237Z,8.17
2022-12-24T15:18:38.232Z,8.14
2022-12-24T15:21:46.525Z,8.07
2022-12-24T15:24:55.546Z,8.11
2022-12-24T15:28:03.987Z,8.15
2022-12-24T15:31:15.878Z,8.16
2022-12-24T15:34:31.394Z,8.09
2022-12-24T15:37:43.601Z,8.10
2022-12-24T15:40:52.169Z,8.05
2022-12-24T15:44:04.808Z,7.95
2022-12-24T15:47:22.352Z,8.04
2022-12-24T15:50:39.325Z,8.10
2022-12-24T15:53:49.145Z,7.88
2022-12-24T15:56:57.614Z,7.88
2022-12-24T16:00:24.142Z,7.86
2022-12-24T16:03:33.492Z,7.81
2022-12-24T16:06:58.094Z,7.86
2022-12-24T16:10:24.879Z,7.82
2022-12-24T16:13:37.261Z,7.93
2022-12-24T16:16:51.613Z,7.79
2022-12-24T16:20:08.071Z,7.68
2022-12-24T16:23:21.872Z,7.62
2022-12-24T16:26:30.275Z,7.62
2022-12-24T16:29:38.376Z,7.69
2022-12-24T16:32:48.923Z,7.69
2022-12-24T16:35:58.252Z,7.77
2022-12-24T16:39:26.667Z,7.78
2022-12-24T16:42:53.171Z,7.71
2022-12-24T16:46:04.150Z,7.69
2022-12-24T16:49:17.744Z,7.81
2022-12-24T16:52:29.066Z,7.47
2022-12-24T16:55:39.041Z,7.58
2022-12-24T16:58:47.370Z,7.39
2022-12-24T17:01:55.841Z,7.37
2022-12-24T17:05:04.003Z,7.57
2022-12-24T17:08:13.406Z,7.43
2022-12-24T17:11:25.616Z,7.52
2022-12-24T17:14:34.421Z,7.51
2022-12-24T17:17:42.636Z,7.65
2022-12-24T17:21:00.579Z,7.63
2022-12-24T17:24:09.995Z,7.54
2022-12-24T17:27:19.669Z,7.37
2022-12-24T17:30:27.749Z,7.33
2022-12-24T17:33:36.021Z,7.55
2022-12-24T17:36:44.244Z,7.28
2022-12-24T17:39:52.599Z,7.28
2022-12-24T17:43:03.222Z,7.27
2022-12-24T17:46:16.129Z,7.24
2022-12-24T17:49:24.597Z,7.41
2022-12-24T17:52:34.755Z,7.57
2022-12-24T17:55:44.339Z,7.51
2022-12-24T17:58:54.078Z,7.49
2022-12-24T18:02:02.385Z,7.36
2022-12-24T18:05:11.138Z,7.32
2022-12-24T18:08:20.704Z,7.48
2022-12-24T18:11:32.680Z,7.51
2022-12-24T18:14:42.463Z,7.78
2022-12-24T18:17:53.267Z,7.67
2022-12-24T18:21:03.322Z,7.75
2022-12-24T18:24:13.326Z,7.61
2022-12-24T18:27:21.688Z,7.60
2022-12-24T18:30:31.366Z,7.50
2022-12-24T18:33:40.910Z,7.41
2022-12-24T18:36:54.838Z,7.47
2022-12-24T18:40:04.778Z,7.44
2022-12-24T18:43:12.940Z,7.70
2022-12-24T18:46:25.624Z,7.81
2022-12-24T18:49:33.808Z,7.65
2022-12-24T18:52:42.164Z,7.62
2022-12-24T18:55:50.496Z,7.62
2022-12-24T18:59:01.498Z,7.69
2022-12-24T19:02:12.329Z,7.57
2022-12-24T19:05:20.619Z,7.34
2022-12-24T19:08:56.456Z,7.35
2022-12-24T19:11:57.855Z,7.42
2022-12-24T19:15:11.807Z,7.39
2022-12-24T19:18:21.946Z,7.34
2022-12-24T19:21:31.499Z,7.32
2022-12-24T19:24:42.845Z,7.35
2022-12-24T19:27:51.213Z,7.24
2022-12-24T19:31:05.828Z,7.32
2022-12-24T19:34:18.296Z,7.24
2022-12-24T19:37:26.481Z,7.40
2022-12-24T19:40:38.392Z,7.30
2022-12-24T19:43:49.865Z,7.47
2022-12-24T19:46:58.708Z,7.38
2022-12-24T19:50:10.261Z,7.46
2022-12-24T19:53:18.703Z,7.60
2022-12-24T19:56:33.334Z,7.69
2022-12-24T19:59:42.266Z,7.58
2022-12-24T20:02:51.588Z,7.69
2022-12-24T20:06:02.136Z,7.63
2022-12-24T20:09:12.922Z,7.57
2022-12-24T20:12:21.573Z,7.49
2022-12-24T20:15:30.172Z,7.39
2022-12-24T20:18:39.328Z,7.34
2022-12-24T20:21:49.368Z,7.48
2022-12-24T20:24:57.504Z,7.55
2022-12-24T20:28:06.637Z,7.55
2022-12-24T20:31:17.817Z,7.81
2022-12-24T20:34:25.967Z,7.76
2022-12-24T20:37:43.700Z,7.63
2022-12-24T20:40:58.881Z,7.53
2022-12-24T20:44:08.082Z,7.74
2022-12-24T20:47:17.165Z,7.76
2022-12-24T20:50:27.040Z,7.73
2022-12-24T20:53:38.976Z,7.82
2022-12-24T20:56:58.100Z,7.76
2022-12-24T21:00:09.610Z,7.70
2022-12-24T21:03:20.064Z,7.64
2022-12-24T21:06:28.694Z,7.76
2022-12-24T21:09:39.065Z,7.71
2022-12-24T21:12:49.398Z,7.66
2022-12-24T21:15:58.662Z,7.68
2022-12-24T21:19:10.719Z,7.69
2022-12-24T21:22:18.949Z,7.71
2022-12-24T21:25:28.674Z,7.68
2022-12-24T21:28:36.920Z,7.74
2022-12-24T21:31:45.486Z,7.69
2022-12-24T21:34:54.038Z,7.55
2022-12-24T21:38:02.531Z,7.76
2022-12-24T21:41:16.627Z,7.77
2022-12-24T21:44:25.152Z,7.72
2022-12-24T21:47:36.823Z,7.62
2022-12-24T21:50:56.838Z,7.79
2022-12-24T21:54:23.469Z,7.79
2022-12-24T21:57:52.445Z,7.76
2022-12-24T22:01:09.064Z,7.75
2022-12-24T22:04:17.710Z,7.77
2022-12-24T22:07:46.873Z,7.76
2022-12-24T22:11:12.856Z,7.82
2022-12-24T22:14:23.096Z,7.85
2022-12-24T22:17:31.553Z,7.82
2022-12-24T22:20:41.230Z,7.90
2022-12-24T22:23:49.497Z,7.69
2022-12-24T22:26:58.407Z,7.70
2022-12-24T22:30:12.457Z,7.83
2022-12-24T22:33:20.869Z,7.83
2022-12-24T22:36:29.276Z,7.89
2022-12-24T22:39:39.097Z,7.81
2022-12-24T22:42:47.320Z,7.64
2022-12-24T22:45:57.063Z,7.75
2022-12-24T22:49:05.427Z,7.83
2022-12-24T22:52:14.622Z,7.86
2022-12-24T22:55:23.133Z,7.72
2022-12-24T22:58:31.601Z,7.50
2022-12-24T23:01:45.292Z,7.56
2022-12-24T23:04:54.208Z,7.59
2022-12-24T23:08:03.099Z,7.66
2022-12-24T23:11:15.199Z,7.61
2022-12-24T23:14:41.983Z,7.57
2022-12-24T23:17:51.924Z,7.49
2022-12-24T23:21:05.491Z,7.52
2022-12-24T23:24:13.756Z,7.50
2022-12-24T23:27:24.107Z,7.50
2022-12-24T23:30:33.081Z,7.50
2022-12-24T23:33:43.307Z,7.52
2022-12-24T23:36:51.735Z,7.50
2022-12-24T23:40:00.195Z,7.46
2022-12-24T23:43:09.729Z,7.44
2022-12-24T23:46:21.193Z,7.39
2022-12-24T23:49:31.824Z,7.37
2022-12-24T23:52:40.518Z,7.26
2022-12-24T23:55:48.907Z,7.33
2022-12-24T23:58:57.022Z,7.31
